sensor_id;sensor_type;location;lat;lon;timestamp;P1;durP1;ratioP1;P2;durP2;ratioP2
59828;SDS011;45708;51.848;107.620;2023-04-03T00:00:50;2.20;;;2.00;;
59828;SDS011;45708;51.848;107.620;2023-04-03T00:05:51;4.17;;;2.17;;
59828;SDS011;45708;51.848;107.620;2023-04-03T00:10:52;7.00;;;2.47;;
59828;SDS011;45708;51.848;107.620;2023-04-03T00:15:53;2.20;;;1.10;;
59828;SDS011;45708;51.848;107.620;2023-04-03T00:20:54;4.60;;;2.30;;
59828;SDS011;45708;51.848;107.620;2023-04-03T00:25:55;3.00;;;1.80;;
59828;SDS011;45708;51.848;107.620;2023-04-03T00:30:56;1.30;;;1.03;;
59828;SDS011;45708;51.848;107.620;2023-04-03T00:35:57;1.10;;;1.03;;
59828;SDS011;45708;51.848;107.620;2023-04-03T00:40:58;0.83;;;0.63;;
59828;SDS011;45708;51.848;107.620;2023-04-03T00:45:59;1.40;;;1.17;;
59828;SDS011;45708;51.848;107.620;2023-04-03T00:51:00;6.40;;;2.30;;
59828;SDS011;45708;51.848;107.620;2023-04-03T00:56:03;2.47;;;2.28;;
59828;SDS011;45708;51.848;107.620;2023-04-03T01:01:08;1.88;;;0.70;;
59828;SDS011;45708;51.848;107.620;2023-04-03T01:06:13;1.90;;;1.60;;
59828;SDS011;45708;51.848;107.620;2023-04-03T01:11:17;1.38;;;1.02;;
59828;SDS011;45708;51.848;107.620;2023-04-03T01:16:18;4.32;;;1.23;;
59828;SDS011;45708;51.848;107.620;2023-04-03T01:21:30;6.05;;;2.00;;
59828;SDS011;45708;51.848;107.620;2023-04-03T01:26:54;1.05;;;0.90;;
59828;SDS011;45708;51.848;107.620;2023-04-03T01:31:57;4.03;;;0.98;;
59828;SDS011;45708;51.848;107.620;2023-04-03T01:36:59;1.90;;;0.82;;
59828;SDS011;45708;51.848;107.620;2023-04-03T01:42:00;1.02;;;0.70;;
59828;SDS011;45708;51.848;107.620;2023-04-03T01:47:01;2.45;;;1.40;;
59828;SDS011;45708;51.848;107.620;2023-04-03T01:52:02;3.00;;;1.20;;
59828;SDS011;45708;51.848;107.620;2023-04-03T01:57:02;1.80;;;0.93;;
59828;SDS011;45708;51.848;107.620;2023-04-03T02:02:03;2.00;;;1.37;;
59828;SDS011;45708;51.848;107.620;2023-04-03T02:07:04;4.83;;;1.67;;
59828;SDS011;45708;51.848;107.620;2023-04-03T02:12:05;1.20;;;0.75;;
59828;SDS011;45708;51.848;107.620;2023-04-03T02:17:06;3.30;;;1.02;;
59828;SDS011;45708;51.848;107.620;2023-04-03T02:22:07;0.98;;;0.85;;
59828;SDS011;45708;51.848;107.620;2023-04-03T02:27:07;2.35;;;1.00;;
59828;SDS011;45708;51.848;107.620;2023-04-03T02:32:08;5.13;;;1.83;;
59828;SDS011;45708;51.848;107.620;2023-04-03T02:37:09;2.40;;;1.37;;
59828;SDS011;45708;51.848;107.620;2023-04-03T02:42:10;2.03;;;1.13;;
59828;SDS011;45708;51.848;107.620;2023-04-03T02:47:10;2.30;;;1.50;;
59828;SDS011;45708;51.848;107.620;2023-04-03T02:52:12;4.97;;;2.53;;
59828;SDS011;45708;51.848;107.620;2023-04-03T02:57:13;1.13;;;1.00;;
59828;SDS011;45708;51.848;107.620;2023-04-03T03:02:14;2.40;;;1.13;;
59828;SDS011;45708;51.848;107.620;2023-04-03T03:07:15;6.67;;;1.47;;
59828;SDS011;45708;51.848;107.620;2023-04-03T03:12:16;2.77;;;1.23;;
59828;SDS011;45708;51.848;107.620;2023-04-03T03:17:17;1.10;;;0.77;;
59828;SDS011;45708;51.848;107.620;2023-04-03T03:22:18;1.80;;;1.27;;
59828;SDS011;45708;51.848;107.620;2023-04-03T03:27:19;2.10;;;1.90;;
59828;SDS011;45708;51.848;107.620;2023-04-03T03:32:19;1.30;;;0.90;;
59828;SDS011;45708;51.848;107.620;2023-04-03T03:37:20;3.53;;;2.03;;
59828;SDS011;45708;51.848;107.620;2023-04-03T03:42:21;3.13;;;2.30;;
59828;SDS011;45708;51.848;107.620;2023-04-03T03:47:22;6.67;;;2.23;;
59828;SDS011;45708;51.848;107.620;2023-04-03T03:52:23;2.80;;;1.77;;
59828;SDS011;45708;51.848;107.620;2023-04-03T03:57:23;6.80;;;1.90;;
59828;SDS011;45708;51.848;107.620;2023-04-03T04:02:24;2.13;;;1.23;;
59828;SDS011;45708;51.848;107.620;2023-04-03T04:07:25;2.73;;;1.87;;
59828;SDS011;45708;51.848;107.620;2023-04-03T04:12:26;1.00;;;0.77;;
59828;SDS011;45708;51.848;107.620;2023-04-03T04:17:27;0.80;;;0.80;;
59828;SDS011;45708;51.848;107.620;2023-04-03T04:22:28;0.93;;;0.87;;
59828;SDS011;45708;51.848;107.620;2023-04-03T04:27:29;0.53;;;0.53;;
59828;SDS011;45708;51.848;107.620;2023-04-03T04:32:29;7.67;;;2.43;;
59828;SDS011;45708;51.848;107.620;2023-04-03T04:37:30;3.27;;;1.97;;
59828;SDS011;45708;51.848;107.620;2023-04-03T04:42:31;1.33;;;1.03;;
59828;SDS011;45708;51.848;107.620;2023-04-03T04:47:32;3.63;;;1.17;;
59828;SDS011;45708;51.848;107.620;2023-04-03T04:52:33;5.90;;;1.53;;
59828;SDS011;45708;51.848;107.620;2023-04-03T04:57:33;0.73;;;0.30;;
59828;SDS011;45708;51.848;107.620;2023-04-03T05:02:34;0.83;;;0.83;;
59828;SDS011;45708;51.848;107.620;2023-04-03T05:07:35;1.30;;;0.73;;
59828;SDS011;45708;51.848;107.620;2023-04-03T05:12:36;3.00;;;0.90;;
59828;SDS011;45708;51.848;107.620;2023-04-03T05:17:36;1.90;;;0.93;;
59828;SDS011;45708;51.848;107.620;2023-04-03T05:22:38;0.93;;;0.67;;
59828;SDS011;45708;51.848;107.620;2023-04-03T05:27:38;2.77;;;2.27;;
59828;SDS011;45708;51.848;107.620;2023-04-03T05:32:39;1.70;;;1.20;;
59828;SDS011;45708;51.848;107.620;2023-04-03T05:37:41;0.25;;;0.25;;
59828;SDS011;45708;51.848;107.620;2023-04-03T05:42:42;0.35;;;0.35;;
59828;SDS011;45708;51.848;107.620;2023-04-03T05:47:43;2.70;;;1.00;;
59828;SDS011;45708;51.848;107.620;2023-04-03T05:52:44;4.00;;;1.90;;
59828;SDS011;45708;51.848;107.620;2023-04-03T05:57:48;6.07;;;1.70;;
59828;SDS011;45708;51.848;107.620;2023-04-03T06:02:48;1.55;;;0.98;;
59828;SDS011;45708;51.848;107.620;2023-04-03T06:07:49;3.10;;;0.85;;
59828;SDS011;45708;51.848;107.620;2023-04-03T06:12:50;1.48;;;0.85;;
59828;SDS011;45708;51.848;107.620;2023-04-03T06:17:51;0.43;;;0.43;;
59828;SDS011;45708;51.848;107.620;2023-04-03T06:22:52;2.05;;;1.27;;
59828;SDS011;45708;51.848;107.620;2023-04-03T06:27:52;0.60;;;0.60;;
59828;SDS011;45708;51.848;107.620;2023-04-03T06:32:53;2.88;;;0.68;;
59828;SDS011;45708;51.848;107.620;2023-04-03T06:37:54;9.77;;;3.28;;
59828;SDS011;45708;51.848;107.620;2023-04-03T06:42:55;5.38;;;2.70;;
59828;SDS011;45708;51.848;107.620;2023-04-03T06:47:55;0.82;;;0.60;;
59828;SDS011;45708;51.848;107.620;2023-04-03T06:52:56;3.03;;;0.88;;
59828;SDS011;45708;51.848;107.620;2023-04-03T06:57:57;6.15;;;1.67;;
59828;SDS011;45708;51.848;107.620;2023-04-03T07:02:58;2.75;;;1.95;;
59828;SDS011;45708;51.848;107.620;2023-04-03T07:07:59;3.00;;;1.42;;
59828;SDS011;45708;51.848;107.620;2023-04-03T07:12:59;5.00;;;1.95;;
59828;SDS011;45708;51.848;107.620;2023-04-03T07:18:00;1.77;;;1.27;;
59828;SDS011;45708;51.848;107.620;2023-04-03T07:23:01;3.00;;;2.10;;
59828;SDS011;45708;51.848;107.620;2023-04-03T07:28:02;1.70;;;1.20;;
59828;SDS011;45708;51.848;107.620;2023-04-03T07:33:10;1.55;;;1.08;;
59828;SDS011;45708;51.848;107.620;2023-04-03T07:38:11;3.13;;;0.88;;
59828;SDS011;45708;51.848;107.620;2023-04-03T07:43:12;0.75;;;0.75;;
59828;SDS011;45708;51.848;107.620;2023-04-03T07:48:13;2.55;;;0.75;;
59828;SDS011;45708;51.848;107.620;2023-04-03T07:53:14;6.90;;;2.17;;
59828;SDS011;45708;51.848;107.620;2023-04-03T07:58:16;4.57;;;1.63;;
59828;SDS011;45708;51.848;107.620;2023-04-03T08:03:18;0.93;;;0.93;;
59828;SDS011;45708;51.848;107.620;2023-04-03T08:08:20;4.60;;;1.70;;
59828;SDS011;45708;51.848;107.620;2023-04-03T08:13:22;5.65;;;1.90;;
59828;SDS011;45708;51.848;107.620;2023-04-03T08:18:23;3.25;;;1.30;;
59828;SDS011;45708;51.848;107.620;2023-04-03T08:23:24;3.05;;;1.58;;
59828;SDS011;45708;51.848;107.620;2023-04-03T08:28:25;2.92;;;1.33;;
59828;SDS011;45708;51.848;107.620;2023-04-03T08:33:26;7.35;;;2.08;;
59828;SDS011;45708;51.848;107.620;2023-04-03T08:38:26;7.85;;;3.28;;
59828;SDS011;45708;51.848;107.620;2023-04-03T08:49:11;3.33;;;1.90;;
59828;SDS011;45708;51.848;107.620;2023-04-03T09:00:01;4.77;;;3.00;;
59828;SDS011;45708;51.848;107.620;2023-04-03T09:05:22;20.85;;;6.20;;
59828;SDS011;45708;51.848;107.620;2023-04-03T09:10:46;12.27;;;4.38;;
59828;SDS011;45708;51.848;107.620;2023-04-03T09:15:47;4.20;;;2.53;;
59828;SDS011;45708;51.848;107.620;2023-04-03T09:26:08;6.65;;;2.42;;
59828;SDS011;45708;51.848;107.620;2023-04-03T09:31:22;3.67;;;2.40;;
59828;SDS011;45708;51.848;107.620;2023-04-03T09:36:44;5.30;;;2.03;;
59828;SDS011;45708;51.848;107.620;2023-04-03T09:42:30;5.00;;;2.63;;
59828;SDS011;45708;51.848;107.620;2023-04-03T09:47:26;7.77;;;3.90;;
59828;SDS011;45708;51.848;107.620;2023-04-03T09:52:29;3.47;;;3.00;;
59828;SDS011;45708;51.848;107.620;2023-04-03T09:57:32;2.58;;;1.92;;
59828;SDS011;45708;51.848;107.620;2023-04-03T10:02:34;4.18;;;2.28;;
59828;SDS011;45708;51.848;107.620;2023-04-03T10:07:40;5.78;;;2.15;;
59828;SDS011;45708;51.848;107.620;2023-04-03T10:12:40;2.13;;;1.33;;
59828;SDS011;45708;51.848;107.620;2023-04-03T10:23:41;11.27;;;5.40;;
59828;SDS011;45708;51.848;107.620;2023-04-03T10:28:34;18.40;;;5.60;;
59828;SDS011;45708;51.848;107.620;2023-04-03T10:34:05;16.63;;;5.67;;
59828;SDS011;45708;51.848;107.620;2023-04-03T10:50:38;17.80;;;7.27;;
59828;SDS011;45708;51.848;107.620;2023-04-03T10:56:11;5.63;;;2.60;;
59828;SDS011;45708;51.848;107.620;2023-04-03T11:01:31;15.30;;;4.37;;
59828;SDS011;45708;51.848;107.620;2023-04-03T11:06:40;23.33;;;6.80;;
59828;SDS011;45708;51.848;107.620;2023-04-03T11:12:16;27.57;;;9.97;;
59828;SDS011;45708;51.848;107.620;2023-04-03T11:17:43;27.53;;;10.80;;
59828;SDS011;45708;51.848;107.620;2023-04-03T11:22:51;25.67;;;11.73;;
59828;SDS011;45708;51.848;107.620;2023-04-03T11:28:00;31.17;;;12.67;;
59828;SDS011;45708;51.848;107.620;2023-04-03T11:38:04;41.67;;;21.10;;
59828;SDS011;45708;51.848;107.620;2023-04-03T11:43:07;32.70;;;16.43;;
59828;SDS011;45708;51.848;107.620;2023-04-03T11:53:34;25.80;;;12.03;;
59828;SDS011;45708;51.848;107.620;2023-04-03T11:58:36;37.87;;;14.27;;
59828;SDS011;45708;51.848;107.620;2023-04-03T12:18:55;76.47;;;29.13;;
59828;SDS011;45708;51.848;107.620;2023-04-03T12:24:01;70.60;;;26.93;;
59828;SDS011;45708;51.848;107.620;2023-04-03T12:45:25;32.07;;;13.77;;
59828;SDS011;45708;51.848;107.620;2023-04-03T12:50:30;41.60;;;15.70;;
59828;SDS011;45708;51.848;107.620;2023-04-03T12:55:32;32.30;;;15.77;;
59828;SDS011;45708;51.848;107.620;2023-04-03T13:00:34;26.87;;;13.70;;
59828;SDS011;45708;51.848;107.620;2023-04-03T13:05:35;31.87;;;14.67;;
59828;SDS011;45708;51.848;107.620;2023-04-03T13:16:16;41.20;;;18.50;;
59828;SDS011;45708;51.848;107.620;2023-04-03T13:21:18;50.93;;;18.77;;
59828;SDS011;45708;51.848;107.620;2023-04-03T13:26:31;53.43;;;25.40;;
59828;SDS011;45708;51.848;107.620;2023-04-03T13:31:35;55.97;;;26.03;;
59828;SDS011;45708;51.848;107.620;2023-04-03T13:42:33;56.43;;;24.33;;
59828;SDS011;45708;51.848;107.620;2023-04-03T13:47:22;33.37;;;17.73;;
59828;SDS011;45708;51.848;107.620;2023-04-03T13:52:27;46.17;;;19.47;;
59828;SDS011;45708;51.848;107.620;2023-04-03T13:57:29;56.13;;;23.17;;
59828;SDS011;45708;51.848;107.620;2023-04-03T14:02:33;52.23;;;21.17;;
59828;SDS011;45708;51.848;107.620;2023-04-03T14:07:34;49.90;;;23.10;;
59828;SDS011;45708;51.848;107.620;2023-04-03T14:12:35;39.03;;;18.40;;
59828;SDS011;45708;51.848;107.620;2023-04-03T14:17:38;51.77;;;17.93;;
59828;SDS011;45708;51.848;107.620;2023-04-03T14:22:39;27.90;;;11.77;;
59828;SDS011;45708;51.848;107.620;2023-04-03T14:27:41;39.90;;;21.20;;
59828;SDS011;45708;51.848;107.620;2023-04-03T14:32:43;45.77;;;19.07;;
59828;SDS011;45708;51.848;107.620;2023-04-03T14:37:45;44.67;;;18.40;;
59828;SDS011;45708;51.848;107.620;2023-04-03T14:42:46;42.03;;;18.50;;
59828;SDS011;45708;51.848;107.620;2023-04-03T14:47:51;37.60;;;16.20;;
59828;SDS011;45708;51.848;107.620;2023-04-03T14:52:54;44.57;;;19.47;;
59828;SDS011;45708;51.848;107.620;2023-04-03T14:57:57;44.57;;;16.87;;
59828;SDS011;45708;51.848;107.620;2023-04-03T15:02:59;54.53;;;20.40;;
59828;SDS011;45708;51.848;107.620;2023-04-03T15:08:00;48.57;;;21.07;;
59828;SDS011;45708;51.848;107.620;2023-04-03T15:13:01;43.80;;;18.03;;
59828;SDS011;45708;51.848;107.620;2023-04-03T15:18:02;44.67;;;18.57;;
59828;SDS011;45708;51.848;107.620;2023-04-03T15:23:03;67.40;;;27.40;;
59828;SDS011;45708;51.848;107.620;2023-04-03T15:28:04;47.80;;;21.67;;
59828;SDS011;45708;51.848;107.620;2023-04-03T15:33:06;59.87;;;26.17;;
59828;SDS011;45708;51.848;107.620;2023-04-03T15:38:07;77.03;;;26.10;;
59828;SDS011;45708;51.848;107.620;2023-04-03T15:43:09;50.20;;;18.97;;
59828;SDS011;45708;51.848;107.620;2023-04-03T15:48:10;63.10;;;21.47;;
59828;SDS011;45708;51.848;107.620;2023-04-03T15:53:12;57.77;;;21.73;;
59828;SDS011;45708;51.848;107.620;2023-04-03T15:58:13;57.50;;;21.40;;
59828;SDS011;45708;51.848;107.620;2023-04-03T16:03:19;47.53;;;19.63;;
59828;SDS011;45708;51.848;107.620;2023-04-03T16:08:20;50.70;;;21.53;;
59828;SDS011;45708;51.848;107.620;2023-04-03T16:13:22;35.73;;;17.53;;
59828;SDS011;45708;51.848;107.620;2023-04-03T16:18:23;54.30;;;18.87;;
59828;SDS011;45708;51.848;107.620;2023-04-03T16:23:24;47.83;;;19.93;;
59828;SDS011;45708;51.848;107.620;2023-04-03T16:28:25;53.27;;;21.17;;
59828;SDS011;45708;51.848;107.620;2023-04-03T16:33:26;49.30;;;19.47;;
59828;SDS011;45708;51.848;107.620;2023-04-03T16:38:27;64.20;;;22.77;;
59828;SDS011;45708;51.848;107.620;2023-04-03T16:43:28;53.43;;;22.20;;
59828;SDS011;45708;51.848;107.620;2023-04-03T16:48:29;63.03;;;24.17;;
59828;SDS011;45708;51.848;107.620;2023-04-03T16:53:30;51.27;;;20.90;;
59828;SDS011;45708;51.848;107.620;2023-04-03T16:58:31;72.43;;;25.83;;
59828;SDS011;45708;51.848;107.620;2023-04-03T17:03:32;61.00;;;23.87;;
59828;SDS011;45708;51.848;107.620;2023-04-03T17:08:33;64.77;;;25.23;;
59828;SDS011;45708;51.848;107.620;2023-04-03T17:13:34;51.23;;;19.97;;
59828;SDS011;45708;51.848;107.620;2023-04-03T17:18:35;60.80;;;22.77;;
59828;SDS011;45708;51.848;107.620;2023-04-03T17:23:36;53.03;;;21.53;;
59828;SDS011;45708;51.848;107.620;2023-04-03T17:28:39;46.33;;;18.63;;
59828;SDS011;45708;51.848;107.620;2023-04-03T17:33:40;34.50;;;14.87;;
59828;SDS011;45708;51.848;107.620;2023-04-03T17:38:41;47.23;;;20.97;;
59828;SDS011;45708;51.848;107.620;2023-04-03T17:43:42;39.77;;;17.97;;
59828;SDS011;45708;51.848;107.620;2023-04-03T17:48:42;36.27;;;16.37;;
59828;SDS011;45708;51.848;107.620;2023-04-03T17:53:44;55.07;;;19.20;;
59828;SDS011;45708;51.848;107.620;2023-04-03T17:58:45;41.67;;;15.83;;
59828;SDS011;45708;51.848;107.620;2023-04-03T18:03:46;34.93;;;15.73;;
59828;SDS011;45708;51.848;107.620;2023-04-03T18:08:49;32.10;;;11.63;;
59828;SDS011;45708;51.848;107.620;2023-04-03T18:13:56;27.47;;;9.90;;
59828;SDS011;45708;51.848;107.620;2023-04-03T18:18:59;35.47;;;12.33;;
59828;SDS011;45708;51.848;107.620;2023-04-03T18:24:01;34.73;;;14.80;;
59828;SDS011;45708;51.848;107.620;2023-04-03T18:29:04;43.17;;;15.73;;
59828;SDS011;45708;51.848;107.620;2023-04-03T18:34:08;31.63;;;14.57;;
59828;SDS011;45708;51.848;107.620;2023-04-03T18:39:08;33.53;;;13.43;;
59828;SDS011;45708;51.848;107.620;2023-04-03T18:44:11;24.90;;;12.07;;
59828;SDS011;45708;51.848;107.620;2023-04-03T18:49:14;22.67;;;11.93;;
59828;SDS011;45708;51.848;107.620;2023-04-03T18:54:15;31.57;;;12.57;;
59828;SDS011;45708;51.848;107.620;2023-04-03T18:59:16;25.40;;;11.30;;
59828;SDS011;45708;51.848;107.620;2023-04-03T19:04:17;24.30;;;13.87;;
59828;SDS011;45708;51.848;107.620;2023-04-03T19:09:18;27.53;;;12.33;;
59828;SDS011;45708;51.848;107.620;2023-04-03T19:14:19;27.97;;;12.17;;
59828;SDS011;45708;51.848;107.620;2023-04-03T19:19:20;31.40;;;13.97;;
59828;SDS011;45708;51.848;107.620;2023-04-03T19:24:20;27.50;;;14.73;;
59828;SDS011;45708;51.848;107.620;2023-04-03T19:29:21;14.87;;;9.17;;
59828;SDS011;45708;51.848;107.620;2023-04-03T19:34:22;25.43;;;10.90;;
59828;SDS011;45708;51.848;107.620;2023-04-03T19:39:23;8.63;;;5.37;;
59828;SDS011;45708;51.848;107.620;2023-04-03T19:44:24;25.77;;;11.63;;
59828;SDS011;45708;51.848;107.620;2023-04-03T19:49:25;19.90;;;8.63;;
59828;SDS011;45708;51.848;107.620;2023-04-03T19:54:26;15.67;;;6.37;;
59828;SDS011;45708;51.848;107.620;2023-04-03T19:59:27;15.67;;;5.23;;
59828;SDS011;45708;51.848;107.620;2023-04-03T20:04:28;3.60;;;2.97;;
59828;SDS011;45708;51.848;107.620;2023-04-03T20:09:29;14.90;;;5.20;;
59828;SDS011;45708;51.848;107.620;2023-04-03T20:14:29;9.50;;;3.80;;
59828;SDS011;45708;51.848;107.620;2023-04-03T20:19:30;7.07;;;4.33;;
59828;SDS011;45708;51.848;107.620;2023-04-03T20:24:31;11.20;;;5.00;;
59828;SDS011;45708;51.848;107.620;2023-04-03T20:29:34;17.73;;;9.90;;
59828;SDS011;45708;51.848;107.620;2023-04-03T20:34:35;18.00;;;8.97;;
59828;SDS011;45708;51.848;107.620;2023-04-03T20:39:36;13.97;;;7.80;;
59828;SDS011;45708;51.848;107.620;2023-04-03T20:44:37;18.40;;;6.90;;
59828;SDS011;45708;51.848;107.620;2023-04-03T20:49:38;18.77;;;7.57;;
59828;SDS011;45708;51.848;107.620;2023-04-03T20:54:39;16.67;;;7.63;;
59828;SDS011;45708;51.848;107.620;2023-04-03T20:59:40;10.33;;;3.70;;
59828;SDS011;45708;51.848;107.620;2023-04-03T21:04:46;19.60;;;9.10;;
59828;SDS011;45708;51.848;107.620;2023-04-03T21:20:45;10.43;;;4.87;;
59828;SDS011;45708;51.848;107.620;2023-04-03T21:25:47;7.77;;;5.10;;
59828;SDS011;45708;51.848;107.620;2023-04-03T21:30:48;9.13;;;4.23;;
59828;SDS011;45708;51.848;107.620;2023-04-03T21:35:49;18.10;;;5.13;;
59828;SDS011;45708;51.848;107.620;2023-04-03T21:40:49;12.37;;;5.90;;
59828;SDS011;45708;51.848;107.620;2023-04-03T21:45:54;6.27;;;5.43;;
59828;SDS011;45708;51.848;107.620;2023-04-03T21:51:02;12.83;;;4.83;;
59828;SDS011;45708;51.848;107.620;2023-04-03T21:56:04;20.77;;;8.77;;
59828;SDS011;45708;51.848;107.620;2023-04-03T22:01:12;19.83;;;10.20;;
59828;SDS011;45708;51.848;107.620;2023-04-03T22:06:14;26.83;;;14.13;;
59828;SDS011;45708;51.848;107.620;2023-04-03T22:11:17;18.43;;;10.23;;
59828;SDS011;45708;51.848;107.620;2023-04-03T22:16:18;21.83;;;11.37;;
59828;SDS011;45708;51.848;107.620;2023-04-03T22:21:19;14.33;;;6.60;;
59828;SDS011;45708;51.848;107.620;2023-04-03T22:26:20;29.07;;;14.47;;
59828;SDS011;45708;51.848;107.620;2023-04-03T22:31:21;22.23;;;13.93;;
59828;SDS011;45708;51.848;107.620;2023-04-03T22:36:22;32.27;;;14.43;;
59828;SDS011;45708;51.848;107.620;2023-04-03T22:41:23;30.27;;;12.60;;
59828;SDS011;45708;51.848;107.620;2023-04-03T22:46:24;17.40;;;11.33;;
59828;SDS011;45708;51.848;107.620;2023-04-03T22:51:25;18.90;;;10.47;;
59828;SDS011;45708;51.848;107.620;2023-04-03T22:56:26;8.73;;;3.03;;
59828;SDS011;45708;51.848;107.620;2023-04-03T23:01:26;16.77;;;11.77;;
59828;SDS011;45708;51.848;107.620;2023-04-03T23:06:27;14.90;;;6.50;;
59828;SDS011;45708;51.848;107.620;2023-04-03T23:11:28;9.10;;;3.70;;
59828;SDS011;45708;51.848;107.620;2023-04-03T23:16:29;9.03;;;7.37;;
59828;SDS011;45708;51.848;107.620;2023-04-03T23:21:30;22.87;;;10.87;;
59828;SDS011;45708;51.848;107.620;2023-04-03T23:26:31;23.53;;;9.53;;
59828;SDS011;45708;51.848;107.620;2023-04-03T23:31:31;28.87;;;6.77;;
59828;SDS011;45708;51.848;107.620;2023-04-03T23:36:32;8.63;;;4.57;;
59828;SDS011;45708;51.848;107.620;2023-04-03T23:41:33;10.93;;;4.60;;
59828;SDS011;45708;51.848;107.620;2023-04-03T23:46:34;20.17;;;7.40;;
59828;SDS011;45708;51.848;107.620;2023-04-03T23:51:34;20.00;;;7.77;;
59828;SDS011;45708;51.848;107.620;2023-04-03T23:56:35;8.47;;;3.73;;
